x

Boston 16 Nm East Of Boston, Ma (44013) Wave Buoy

12:50 - Thu 23rd Mar 2017 All times are EDT. -4 hours from GMT.

  • Sig Wave height 3.6ft
  • Swell Direction
  • Peak Period 4s
  • Average Period 4s
  • Wind
    20mph, 25mph gusts
  • Sea Temp 40°f
  • Aire Temp 29°f
  • Sea Pressure 1030.5mb
  • Boston 16 Nm East Of Boston, Ma
  • Boston 16 Nm East Of Boston, Ma

More Historic Weather Station data

Upgrade to MSW Pro to gain access to the past 30 days of data for over 8000 Wavebouys and Weather Stations around the globe.

Join Pro

Comparision Forecast

View Surf forecast
   
jue 03/23 12:50 3.5ft 4s 4s 20 25 mph 1030.5mb 40f 29f
11:50 3.5ft 4s 4s 18 25 mph 1031.2mb 40f 26f
10:50 3.5ft 4s 4s 22 27 mph 1031.4mb 40f 24f
9:50 3.5ft 4s 4s 22 29 mph 1031.1mb 40f 23f
8:50 4ft 4s 4s 22 29 mph 1030.9mb 40f 21f
7:50 4.5ft 6s 4s 25 29 mph 1030.4mb 40f 21f
6:50 4.5ft 4s 4s 25 31 mph 1029.4mb 40f 21f
5:50 4.5ft 4s 4s 27 34 mph 1028.6mb 40f 22f
4:50 4.5ft 4s 4s 29 36 mph 1027.7mb 40f 22f
3:50 5ft 5s  -  29 36 mph 1027.1mb 40f 22f
2:50 5ft 4s 4s 29 36 mph 1027mb 40f 22f
1:50 6ft 5s 5s 31 38 mph 1026.7mb 40f 22f
12:50 6.5ft 5s 5s 34 43 mph 1026mb 40f 21f
mié 03/22 11:50 6ft 5s 4s 31 38 mph 1025.4mb 40f 22f
10:50 6ft 5s 5s 34 43 mph 1024.3mb 40f 22f
9:50 6ft 5s 5s 29 38 mph 1023.5mb 40f 23f
8:50 6ft 6s 5s 34 45 mph 1021.9mb 40f 23f
7:50 6.5ft 6s 5s 38 45 mph 1020mb 40f 24f
6:50 7ft 6s 5s 34 43 mph 1018.5mb 40f 26f
5:50 7ft 6s 5s 36 45 mph 1017mb 40f 27f
4:50 7ft 5s 5s 38 51 mph 1015.8mb 40f 27f
3:50 7ft 6s 5s 38 45 mph 1015mb 40f 28f
2:50 6.5ft 5s 5s 34 38 mph 1014.3mb 40f 28f
1:50 6ft 5s 5s 31 38 mph 1013.2mb 40f 29f
12:50 5ft 5s 4s 29 38 mph 1012.8mb 40f 31f
11:50 4.5ft 5s 4s 31 38 mph 1011.6mb 40f 32f
10:50 4.5ft 4s 4s 27 34 mph 1010.4mb 40f 33f
9:50 3.5ft 11s 4s 27 34 mph 1009mb 40f 36f
8:50 3.5ft 11s 4s 27 31 mph 1007.9mb 40f 39f
7:50 3.5ft 10s 4s 25 31 mph 1007.3mb 40f 40f
6:50 3.5ft 9s 4s 25 29 mph 1006.5mb 40f 40f
5:50 3ft 9s 5s 22 27 mph 1006.3mb 40f 41f
4:50 3ft 9s 7s 20 27 mph 1006.2mb 40f 42f
3:50 3.5ft 9s 7s 7 9 mph 1006.4mb 41f 41f
2:50 3.5ft 10s 6s 7 9 mph 1007.5mb 41f 41f
1:50 3.5ft 10s 6s 13 18 mph 1007.9mb 41f 42f
12:50 3.5ft 10s 6s 18 20 mph 1007.8mb 41f 42f
mar 03/21 11:50 3.5ft 10s 6s 13 16 mph 1008.3mb 41f 43f
10:50 3ft 10s 6s 18 20 mph 1008.2mb 41f 45f
9:50 3.5ft 10s 7s 11 13 mph 1008.1mb 41f 46f
8:50 3.5ft 11s 7s 9 11 mph 1007.7mb 41f 46f
7:50 3.5ft 11s 7s 9 11 mph 1007mb 41f 43f
6:50 3.5ft 9s 7s 9
mph
1006.8mb 42f 42f
5:50 4ft 10s 7s 9 11 mph 1006.8mb 42f 43f
4:50 4.5ft 10s 7s 11 16 mph 1007.2mb 42f 43f
3:50 4.5ft 10s 7s 9
mph
1007.9mb 43f 43f
2:50 5ft 11s 7s 4 7 mph 1008.4mb 43f 44f
1:50 4.5ft 11s 7s 4 7 mph 1009mb 42f 44f
12:50 5ft 10s 7s 2 4 mph 1010mb 42f 44f
11:50 4.5ft 11s 7s 4 7 mph 1010.8mb 41f 42f
10:50 5ft 10s 8s 4 7 mph 1011.1mb 41f 42f
9:50 5.5ft 10s 8s 7 9 mph 1011.4mb 41f 41f
8:50 4.5ft 10s 7s 7 9 mph 1011.2mb 40f 41f
7:50 4.5ft 10s 7s 7
mph
1011mb 40f 40f
6:50 5.5ft 10s 7s 9 11 mph 1010.6mb 40f 41f
5:50 5ft 11s 7s 9 11 mph 1010.5mb 40f 41f
4:50 6ft 10s 7s 11 13 mph 1010.5mb 40f 41f
3:50 6.5ft 10s 7s 11 16 mph 1010.5mb 40f 41f
2:50 7ft 10s 8s 13 16 mph 1011mb 40f 41f
1:50 7ft 10s 8s 11 13 mph 1011.2mb 40f 41f
12:50 6.5ft 11s 8s 9 11 mph 1011.8mb 40f 41f
lun 03/20 11:50 8ft 10s 8s 7 9 mph 1012.3mb 40f 41f
10:50 8ft 10s 8s 4 7 mph 1012.3mb 40f 40f
9:50 7.5ft 10s 8s 4 7 mph 1012.6mb 40f 41f
8:50 7ft 10s 7s 2 4 mph 1012.7mb 40f 42f
7:50 7.5ft 10s 7s 2 4 mph 1012.7mb 41f 41f
6:50 8ft 11s 7s 4 7 mph 1012.4mb 41f 42f
5:50 8.5ft 10s 7s 7 9 mph 1012.7mb 41f 42f
4:50 9ft 10s 7s 11
mph
1013.1mb 40f 42f
3:50 10ft 10s 7s 11
mph
1013.2mb 40f 42f
2:50 10ft 10s 7s 13 16 mph 1013.7mb 40f 42f
1:50 11.5ft 11s 7s 20 25 mph 1014.3mb 40f 43f
12:50 11.5ft 11s 7s 22 27 mph 1015mb 40f 41f
11:50 11ft 11s 7s 27 34 mph 1015.8mb 40f 40f
10:50 11ft 10s 7s 27 34 mph 1016mb 40f 39f
9:50 10ft 9s 7s 29 34 mph 1015.8mb 40f 38f
8:50 11ft 11s 7s 27 31 mph 1016.1mb 40f 38f
7:50 10ft 11s 7s 29 36 mph 1015.5mb 40f 38f
6:50 9.5ft 10s 7s 29 34 mph 1015.3mb 40f 38f
5:50 11ft 11s 7s 25 29 mph 1015.2mb 40f 37f
4:50 10ft 11s 7s 27 31 mph 1014.9mb 40f 38f
3:50 11ft 11s 7s 25 29 mph 1015.2mb 40f 38f
2:50 11.5ft 10s 7s 25 29 mph 1015.6mb 40f 38f
1:50 10ft 11s 7s 22 27 mph 1016.3mb 40f 38f
12:50 10ft 11s 7s 22 27 mph 1016.6mb 40f 40f
dom 03/19 11:50 10ft 10s 7s 20 25 mph 1017.4mb 40f 39f
10:50 10ft 10s 7s 22 25 mph 1018.1mb 40f 38f
9:50 10.5ft 8s 7s 22 25 mph 1018.7mb 40f 38f
8:50 9.5ft 10s 7s 25 29 mph 1018.9mb 40f 39f
7:50 10ft 9s 7s 22 27 mph 1019mb 40f 38f
6:50 10ft 8s 6s 25 29 mph 1018.8mb 40f 38f